createdAt,value
2019-04-05T00:00:35.700Z,94670.30
2019-04-05T00:03:06.994Z,94669.58
2019-04-05T00:05:38.041Z,94669.21
2019-04-05T00:08:09.170Z,94661.67
2019-04-05T00:10:40.488Z,94660.67
2019-04-05T00:13:11.559Z,94666.22
2019-04-05T00:15:42.949Z,94659.95
2019-04-05T00:18:14.187Z,94666.37
2019-04-05T00:20:48.206Z,94665.73
2019-04-05T00:23:19.311Z,94657.03
2019-04-05T00:25:50.229Z,94657.92
2019-04-05T00:28:21.527Z,94663.67
2019-04-05T00:30:52.530Z,94663.30
2019-04-05T00:33:23.532Z,94659.19
2019-04-05T00:35:55.183Z,94653.59
2019-04-05T00:38:26.360Z,94656.20
2019-04-05T00:40:57.418Z,94653.62
2019-04-05T00:43:28.869Z,94656.11
2019-04-05T00:45:59.879Z,94659.94
2019-04-05T00:48:30.696Z,94656.72
2019-04-05T00:51:01.986Z,94662.75
2019-04-05T00:53:33.344Z,94656.97
2019-04-05T00:56:04.615Z,94657.61
2019-04-05T00:58:35.564Z,94654.98
2019-04-05T01:01:06.367Z,94654.77
2019-04-05T01:03:37.341Z,94650.36
2019-04-05T01:06:08.730Z,94651.55
2019-04-05T01:08:40.111Z,94651.17
2019-04-05T01:11:11.031Z,94649.33
2019-04-05T01:13:42.365Z,94649.27
2019-04-05T01:16:13.009Z,94664.52
2019-04-05T01:18:44.152Z,94659.17
2019-04-05T01:21:16.413Z,94658.44
2019-04-05T01:23:48.084Z,94657.98
2019-04-05T01:26:19.493Z,94649.33
2019-04-05T01:28:51.063Z,94653.50
2019-04-05T01:31:22.091Z,94644.67
2019-04-05T01:33:53.247Z,94642.37
2019-04-05T01:36:24.228Z,94644.69
2019-04-05T01:38:55.231Z,94650.90
2019-04-05T01:41:26.653Z,94649.97
2019-04-05T01:43:57.193Z,94655.80
2019-04-05T01:46:30.855Z,94649.54
2019-04-05T01:49:02.024Z,94642.55
2019-04-05T01:51:33.049Z,94645.00
2019-04-05T01:54:04.333Z,94649.84
2019-04-05T01:56:34.804Z,94645.99
2019-04-05T01:59:05.939Z,94647.27
2019-04-05T02:01:36.754Z,94645.81
2019-04-05T02:04:07.741Z,94645.31
2019-04-05T02:06:38.828Z,94650.90
2019-04-05T02:09:12.212Z,94649.08
2019-04-05T02:11:43.768Z,94642.66
2019-04-05T02:14:14.837Z,94638.92
2019-04-05T02:16:45.999Z,94639.34
2019-04-05T02:19:16.911Z,94645.31
2019-04-05T02:21:48.457Z,94647.61
2019-04-05T02:24:19.555Z,94652.41
2019-04-05T02:26:50.693Z,94659.88
2019-04-05T02:29:22.161Z,94659.14
2019-04-05T02:31:53.295Z,94657.59
2019-04-05T02:34:24.354Z,94652.38
2019-04-05T02:36:55.377Z,94648.64
2019-04-05T02:39:26.670Z,94651.98
2019-04-05T02:41:58.318Z,94653.06
2019-04-05T02:44:30.352Z,94648.01
2019-04-05T02:47:01.713Z,94652.70
2019-04-05T02:49:33.763Z,94640.61
2019-04-05T02:52:05.467Z,94647.06
2019-04-05T02:54:36.799Z,94642.04
2019-04-05T02:57:09.200Z,94652.02
2019-04-05T02:59:40.350Z,94649.13
2019-04-05T03:02:12.363Z,94644.18
2019-04-05T03:04:43.595Z,94643.65
2019-04-05T03:07:14.825Z,94648.03
2019-04-05T03:09:46.210Z,94647.76
2019-04-05T03:12:19.149Z,94644.34
2019-04-05T03:14:50.885Z,94649.90
2019-04-05T03:17:23.269Z,94652.73
2019-04-05T03:19:55.641Z,94651.48
2019-04-05T03:22:27.805Z,94652.18
2019-04-05T03:25:00.010Z,94649.50
2019-04-05T03:27:32.134Z,94648.49
2019-04-05T03:30:03.194Z,94644.57
2019-04-05T03:32:34.514Z,94640.98
2019-04-05T03:35:05.885Z,94642.74
2019-04-05T03:37:37.053Z,94643.26
2019-04-05T03:40:08.077Z,94653.29
2019-04-05T03:42:39.485Z,94654.92
2019-04-05T03:45:10.450Z,94660.66
2019-04-05T03:47:41.929Z,94663.61
2019-04-05T03:50:13.344Z,94664.80
2019-04-05T03:52:44.985Z,94665.59
2019-04-05T03:55:16.247Z,94659.84
2019-04-05T03:57:47.770Z,94668.77
2019-04-05T04:00:19.155Z,94666.34
2019-04-05T04:02:50.617Z,94663.01
2019-04-05T04:05:21.805Z,94670.78
2019-04-05T04:07:52.990Z,94660.92
2019-04-05T04:10:25.245Z,94659.61
2019-04-05T04:12:56.894Z,94660.05
2019-04-05T04:15:28.243Z,94663.84
2019-04-05T04:17:59.554Z,94664.25
2019-04-05T04:20:42.252Z,94669.88
2019-04-05T04:23:13.702Z,94672.52
2019-04-05T04:25:45.025Z,94668.19
2019-04-05T04:28:16.556Z,94674.77
2019-04-05T04:30:48.045Z,94666.06
2019-04-05T04:33:19.494Z,94665.36
2019-04-05T04:35:51.997Z,94670.30
2019-04-05T04:38:22.955Z,94666.27
2019-04-05T04:40:53.946Z,94665.66
2019-04-05T04:43:25.165Z,94673.41
2019-04-05T04:45:56.499Z,94674.91
2019-04-05T04:48:28.861Z,94676.90
2019-04-05T04:51:00.181Z,94680.30
2019-04-05T04:53:31.471Z,94681.20
2019-04-05T04:56:02.873Z,94673.80
2019-04-05T04:58:33.926Z,94676.45
2019-04-05T05:01:05.469Z,94679.91
2019-04-05T05:03:36.959Z,94667.88
2019-04-05T05:06:08.337Z,94677.39
2019-04-05T05:08:39.565Z,94669.88
2019-04-05T05:11:14.822Z,94676.90
2019-04-05T05:13:43.055Z,94681.55
2019-04-05T05:16:14.067Z,94676.88
2019-04-05T05:18:45.279Z,94684.94
2019-04-05T05:21:16.778Z,94687.16
2019-04-05T05:23:48.041Z,94689.55
2019-04-05T05:26:19.258Z,94675.25
2019-04-05T05:28:50.466Z,94681.50
2019-04-05T05:31:21.678Z,94668.81
2019-04-05T05:33:52.742Z,94663.67
2019-04-05T05:36:23.727Z,94661.43
2019-04-05T05:38:54.896Z,94664.05
2019-04-05T05:41:26.099Z,94660.16
2019-04-05T05:43:57.576Z,94659.87
2019-04-05T05:46:29.139Z,94650.58
2019-04-05T05:49:00.332Z,94655.55
2019-04-05T05:51:32.147Z,94656.23
2019-04-05T05:54:03.112Z,94645.70
2019-04-05T05:56:34.410Z,94653.32
2019-04-05T05:59:05.385Z,94658.94
2019-04-05T06:01:36.657Z,94648.48
2019-04-05T06:04:07.648Z,94648.69
2019-04-05T06:06:38.986Z,94648.91
2019-04-05T06:09:10.288Z,94659.38
2019-04-05T06:11:41.387Z,94657.40
2019-04-05T06:29:52.443Z,94649.22
2019-04-05T06:32:23.965Z,94638.14
2019-04-05T06:34:55.624Z,94648.08
2019-04-05T06:37:27.636Z,94647.73
2019-04-05T06:39:59.336Z,94643.22
2019-04-05T06:42:31.022Z,94646.41
2019-04-05T06:45:02.836Z,94643.81
2019-04-05T06:47:34.784Z,94640.80
2019-04-05T06:50:07.382Z,94650.04
2019-04-05T06:52:39.404Z,94650.62
2019-04-05T06:55:11.346Z,94655.25
2019-04-05T06:57:42.947Z,94656.16
2019-04-05T07:00:15.102Z,94660.08
2019-04-05T07:02:46.976Z,94659.70
2019-04-05T07:05:20.938Z,94667.27
2019-04-05T07:07:52.549Z,94656.58
2019-04-05T07:10:24.186Z,94655.23
2019-04-05T07:12:56.284Z,94654.90
2019-04-05T07:15:28.019Z,94647.67
2019-04-05T07:17:59.672Z,94651.80
2019-04-05T07:20:31.538Z,94645.50
2019-04-05T07:23:03.355Z,94644.90
2019-04-05T07:25:34.949Z,94641.14
2019-04-05T07:28:06.748Z,94646.54
2019-04-05T07:30:38.594Z,94646.29
2019-04-05T07:33:10.221Z,94644.13
2019-04-05T07:35:41.911Z,94647.08
2019-04-05T07:38:13.696Z,94637.78
2019-04-05T07:40:45.448Z,94636.83
2019-04-05T07:43:17.237Z,94646.30
2019-04-05T07:45:48.833Z,94648.52
2019-04-05T07:48:20.629Z,94656.70
2019-04-05T07:50:52.232Z,94655.78
2019-04-05T07:53:24.185Z,94649.67
2019-04-05T07:55:55.810Z,94651.13
2019-04-05T07:58:27.396Z,94641.09
2019-04-05T08:00:59.381Z,94635.00
2019-04-05T08:03:31.064Z,94627.12
2019-04-05T08:06:02.862Z,94617.24
2019-04-05T08:08:45.748Z,94620.31
2019-04-05T08:11:19.751Z,94623.67
2019-04-05T08:13:53.373Z,94618.08
2019-04-05T08:16:25.151Z,94615.58
2019-04-05T08:18:58.388Z,94613.67
2019-04-05T08:21:30.460Z,94614.63
2019-04-05T08:24:02.351Z,94614.58
2019-04-05T08:26:33.951Z,94612.70
2019-04-05T08:29:06.136Z,94607.78
2019-04-05T08:31:37.880Z,94612.72
2019-04-05T08:34:09.968Z,94606.14
2019-04-05T08:36:41.829Z,94602.73
2019-04-05T08:39:13.865Z,94604.30
2019-04-05T08:41:45.571Z,94591.81
2019-04-05T08:44:17.608Z,94598.84
2019-04-05T08:46:49.349Z,94589.48
2019-04-05T08:49:21.060Z,94588.17
2019-04-05T08:51:52.867Z,94585.23
2019-04-05T08:54:32.586Z,94584.41
2019-04-05T08:56:58.000Z,94583.06
2019-04-05T08:59:29.910Z,94570.70
2019-04-05T09:02:01.356Z,94573.06
2019-04-05T09:04:32.873Z,94568.92
2019-04-05T09:07:04.718Z,94568.30
2019-04-05T09:09:36.576Z,94566.89
2019-04-05T09:12:08.510Z,94561.98
2019-04-05T09:14:40.209Z,94556.69
2019-04-05T09:17:11.943Z,94548.66
2019-04-05T09:19:43.578Z,94551.67
2019-04-05T09:22:15.183Z,94555.03
2019-04-05T09:24:46.634Z,94555.30
2019-04-05T09:27:18.680Z,94557.86
2019-04-05T09:43:20.898Z,94558.45
2019-04-05T09:45:52.401Z,94559.23
2019-04-05T09:48:23.934Z,94561.28
2019-04-05T09:50:55.770Z,94569.02
2019-04-05T09:53:27.673Z,94550.69
2019-04-05T09:55:59.486Z,94552.31
2019-04-05T09:58:32.569Z,94550.22
2019-04-05T10:01:04.332Z,94560.34
2019-04-05T10:03:35.825Z,94551.99
2019-04-05T10:06:07.550Z,94543.87
2019-04-05T10:08:39.641Z,94549.88
2019-04-05T10:11:11.117Z,94546.15
2019-04-05T10:13:42.951Z,94552.48
2019-04-05T10:16:14.761Z,94540.22
2019-04-05T10:18:46.570Z,94550.36
2019-04-05T10:21:18.320Z,94544.41
2019-04-05T10:23:49.966Z,94549.53
2019-04-05T10:26:21.609Z,94553.66
2019-04-05T10:28:53.531Z,94549.70
2019-04-05T10:31:25.626Z,94558.48
2019-04-05T10:33:57.529Z,94542.40
2019-04-05T10:36:29.146Z,94538.22
2019-04-05T10:39:00.722Z,94543.02
2019-04-05T10:41:32.800Z,94545.16
2019-04-05T10:44:06.016Z,94548.79
2019-04-05T10:46:37.888Z,94558.98
2019-04-05T10:49:09.535Z,94550.52
2019-04-05T10:51:41.306Z,94545.50
2019-04-05T10:54:12.981Z,94548.45
2019-04-05T10:56:44.800Z,94550.52
2019-04-05T10:59:16.653Z,94548.64
2019-04-05T11:01:48.278Z,94548.45
2019-04-05T11:04:20.068Z,94542.04
2019-04-05T11:06:51.621Z,94529.84
2019-04-05T11:09:23.485Z,94539.16
2019-04-05T11:11:55.375Z,94531.95
2019-04-05T11:14:27.907Z,94540.50
2019-04-05T11:16:59.768Z,94531.45
2019-04-05T11:19:32.334Z,94525.05
2019-04-05T11:22:05.227Z,94531.71
2019-04-05T11:24:36.904Z,94531.70
2019-04-05T11:27:08.742Z,94522.66
2019-04-05T11:29:40.487Z,94525.86
2019-04-05T11:32:11.996Z,94520.79
2019-04-05T11:34:43.915Z,94520.55
2019-04-05T11:37:16.885Z,94518.41
2019-04-05T11:39:49.686Z,94510.95
2019-04-05T11:42:24.259Z,94507.48
2019-04-05T11:44:58.750Z,94493.34
2019-04-05T11:47:31.349Z,94497.61
2019-04-05T11:50:04.572Z,94499.19
2019-04-05T11:52:35.288Z,94496.53
2019-04-05T11:55:07.346Z,94498.59
2019-04-05T11:57:40.968Z,94501.53
2019-04-05T12:00:17.909Z,94500.80
2019-04-05T12:03:01.253Z,94484.52
2019-04-05T12:05:33.370Z,94485.01
2019-04-05T12:08:05.779Z,94482.15
2019-04-05T12:10:37.714Z,94484.75
2019-04-05T12:13:09.529Z,94478.00
2019-04-05T12:15:41.249Z,94485.19
2019-04-05T12:18:16.002Z,94487.70
2019-04-05T12:20:50.929Z,94475.41
2019-04-05T12:23:18.453Z,94471.68
2019-04-05T12:25:49.855Z,94465.50
2019-04-05T12:28:21.529Z,94463.23
2019-04-05T12:30:56.120Z,94449.38
2019-04-05T12:33:27.802Z,94451.51
2019-04-05T12:35:59.756Z,94446.09
2019-04-05T12:38:33.115Z,94435.13
2019-04-05T12:41:05.497Z,94433.83
2019-04-05T12:43:37.083Z,94436.66
2019-04-05T12:46:08.976Z,94427.99
2019-04-05T12:48:40.679Z,94423.06
2019-04-05T12:51:13.152Z,94409.37
2019-04-05T12:53:44.478Z,94425.09
2019-04-05T12:56:16.084Z,94409.05
2019-04-05T12:58:47.599Z,94406.68
2019-04-05T13:01:19.361Z,94411.28
2019-04-05T13:03:51.850Z,94408.64
2019-04-05T13:06:23.696Z,94399.47
2019-04-05T13:08:55.286Z,94399.86
2019-04-05T13:11:27.371Z,94388.88
2019-04-05T13:13:59.721Z,94387.39
2019-04-05T13:16:31.579Z,94386.51
2019-04-05T13:19:03.621Z,94383.55
2019-04-05T13:21:35.071Z,94377.26
2019-04-05T13:24:10.059Z,94377.64
2019-04-05T13:26:42.067Z,94376.37
2019-04-05T13:29:14.234Z,94376.73
2019-04-05T13:31:46.575Z,94377.14
2019-04-05T13:34:19.155Z,94374.15
2019-04-05T13:36:50.930Z,94377.93
2019-04-05T13:39:22.643Z,94379.26
2019-04-05T13:41:54.133Z,94378.56
2019-04-05T13:44:25.930Z,94379.34
2019-04-05T13:46:57.533Z,94367.20
2019-04-05T13:49:29.588Z,94374.08
2019-04-05T13:52:01.387Z,94374.80
2019-04-05T13:54:33.470Z,94374.08
2019-04-05T13:57:05.194Z,94373.59
2019-04-05T13:59:36.950Z,94373.85
2019-04-05T14:02:08.835Z,94368.19
2019-04-05T14:04:40.334Z,94374.31
2019-04-05T14:07:11.707Z,94373.25
2019-04-05T14:09:43.302Z,94362.04
2019-04-05T14:12:15.128Z,94366.57
2019-04-05T14:14:51.025Z,94359.91
2019-04-05T14:17:20.585Z,94359.81
2019-04-05T14:19:52.392Z,94361.09
2019-04-05T14:22:24.404Z,94359.55
2019-04-05T14:24:56.794Z,94342.98
2019-04-05T14:27:28.649Z,94353.64
2019-04-05T14:30:03.110Z,94362.42
2019-04-05T14:32:35.842Z,94368.76
2019-04-05T14:35:08.405Z,94367.16
2019-04-05T14:37:40.400Z,94356.30
2019-04-05T14:40:14.036Z,94363.02
2019-04-05T14:42:45.847Z,94358.05
2019-04-05T14:45:17.671Z,94351.08
2019-04-05T14:47:49.498Z,94344.89
2019-04-05T14:50:21.292Z,94346.81
2019-04-05T14:52:53.057Z,94350.77
2019-04-05T14:55:24.560Z,94348.94
2019-04-05T14:57:56.357Z,94344.63
2019-04-05T15:00:29.474Z,94343.34
2019-04-05T15:03:00.935Z,94339.02
2019-04-05T15:05:32.712Z,94346.43
2019-04-05T15:08:04.465Z,94337.63
2019-04-05T15:10:36.304Z,94335.70
2019-04-05T15:13:09.274Z,94339.63
2019-04-05T15:15:40.953Z,94336.69
2019-04-05T15:18:12.633Z,94337.61
2019-04-05T15:20:46.436Z,94338.70
2019-04-05T15:23:18.226Z,94340.81
2019-04-05T15:25:50.536Z,94339.91
2019-04-05T15:28:22.473Z,94331.96
2019-04-05T15:30:56.250Z,94332.64
2019-04-05T15:33:28.492Z,94335.84
2019-04-05T15:36:03.118Z,94334.07
2019-04-05T15:38:34.971Z,94329.02
2019-04-05T15:41:06.488Z,94329.23
2019-04-05T15:43:38.437Z,94328.44
2019-04-05T15:46:10.321Z,94320.39
2019-04-05T15:48:41.989Z,94326.25
2019-04-05T15:51:13.489Z,94325.70
2019-04-05T15:53:45.160Z,94327.77
2019-04-05T15:56:17.148Z,94334.24
2019-04-05T15:58:48.971Z,94336.91
2019-04-05T16:01:20.748Z,94326.19
2019-04-05T16:03:52.328Z,94327.03
2019-04-05T16:06:24.199Z,94333.97
2019-04-05T16:08:56.075Z,94329.28
2019-04-05T16:11:27.505Z,94331.95
2019-04-05T16:13:59.477Z,94337.27
2019-04-05T16:16:31.046Z,94340.97
2019-04-05T16:19:03.103Z,94332.20
2019-04-05T16:21:34.866Z,94331.39
2019-04-05T16:24:07.705Z,94332.99
2019-04-05T16:26:39.283Z,94326.62
2019-04-05T16:29:11.155Z,94328.86
2019-04-05T16:31:42.977Z,94333.88
2019-04-05T16:34:14.435Z,94336.77
2019-04-05T16:36:46.328Z,94334.64
2019-04-05T16:39:21.042Z,94333.04
2019-04-05T16:41:52.385Z,94337.30
2019-04-05T16:44:23.963Z,94334.64
2019-04-05T16:46:56.167Z,94341.06
2019-04-05T16:49:27.752Z,94336.28
2019-04-05T16:51:59.555Z,94338.70
2019-04-05T16:54:31.311Z,94336.58
2019-04-05T16:57:02.910Z,94337.64
2019-04-05T16:59:34.753Z,94337.07
2019-04-05T17:02:06.650Z,94331.52
2019-04-05T17:04:38.526Z,94330.53
2019-04-05T17:07:10.119Z,94330.77
2019-04-05T17:09:41.779Z,94327.33
2019-04-05T17:12:13.465Z,94329.24
2019-04-05T17:14:45.177Z,94326.32
2019-04-05T17:17:16.703Z,94327.39
2019-04-05T17:19:48.329Z,94331.64
2019-04-05T17:22:23.025Z,94327.93
2019-04-05T17:24:54.696Z,94331.14
2019-04-05T17:27:26.584Z,94328.22
2019-04-05T17:29:58.312Z,94333.80
2019-04-05T17:32:30.031Z,94332.47
2019-04-05T17:35:01.794Z,94331.94
2019-04-05T17:37:33.729Z,94333.80
2019-04-05T17:40:08.343Z,94346.03
2019-04-05T17:42:40.931Z,94347.58
2019-04-05T17:45:12.952Z,94348.38
2019-04-05T17:47:44.715Z,94350.00
2019-04-05T17:50:19.944Z,94347.84
2019-04-05T17:52:51.757Z,94357.47
2019-04-05T17:55:23.713Z,94358.21
2019-04-05T17:57:55.649Z,94351.00
2019-04-05T18:00:27.515Z,94360.03
2019-04-05T18:02:59.591Z,94360.81
2019-04-05T18:05:31.445Z,94373.77
2019-04-05T18:08:03.339Z,94370.82
2019-04-05T18:10:35.031Z,94375.13
2019-04-05T18:13:06.993Z,94376.07
2019-04-05T18:15:46.686Z,94372.96
2019-04-05T18:18:12.954Z,94370.88
2019-04-05T18:20:44.650Z,94367.29
2019-04-05T18:23:24.922Z,94370.27
2019-04-05T18:25:51.070Z,94367.59
2019-04-05T18:28:22.999Z,94359.67
2019-04-05T18:30:54.846Z,94366.78
2019-04-05T18:33:26.582Z,94368.50
2019-04-05T18:35:58.363Z,94370.20
2019-04-05T18:38:30.333Z,94361.86
2019-04-05T18:41:02.120Z,94361.58
2019-04-05T18:43:34.017Z,94352.14
2019-04-05T18:46:05.611Z,94354.69
2019-04-05T18:48:37.348Z,94355.13
2019-04-05T18:51:08.908Z,94349.34
2019-04-05T18:53:40.785Z,94358.25
2019-04-05T18:57:14.282Z,94357.67
2019-04-05T18:59:47.408Z,94352.73
2019-04-05T19:02:19.153Z,94361.15
2019-04-05T19:04:51.183Z,94360.56
2019-04-05T19:07:23.018Z,94355.94
2019-04-05T19:09:54.558Z,94355.49
2019-04-05T19:12:26.161Z,94357.97
2019-04-05T19:14:57.932Z,94356.09
2019-04-05T19:17:30.691Z,94360.69
2019-04-05T19:20:02.548Z,94358.06
2019-04-05T19:22:34.263Z,94355.39
2019-04-05T19:25:06.104Z,94359.22
2019-04-05T19:27:37.790Z,94348.94
2019-04-05T19:50:38.038Z,94357.09
2019-04-05T19:53:09.813Z,94358.58
2019-04-05T19:55:41.482Z,94359.41
2019-04-05T19:58:13.336Z,94358.91
2019-04-05T20:00:44.913Z,94356.29
2019-04-05T20:03:16.725Z,94357.59
2019-04-05T20:05:48.548Z,94360.54
2019-04-05T20:08:20.296Z,94354.42
2019-04-05T20:10:51.821Z,94362.61
2019-04-05T20:13:23.553Z,94369.54
2019-04-05T20:15:55.027Z,94368.30
2019-04-05T20:18:27.009Z,94368.30
2019-04-05T20:20:58.808Z,94371.20
2019-04-05T20:23:30.484Z,94369.07
2019-04-05T20:26:02.234Z,94366.17
2019-04-05T20:28:34.113Z,94368.05
2019-04-05T20:31:05.862Z,94373.54
2019-04-05T20:33:37.470Z,94372.55
2019-04-05T20:36:09.269Z,94373.34
2019-04-05T20:38:40.907Z,94374.59
2019-04-05T20:41:12.910Z,94378.84
2019-04-05T20:43:44.446Z,94380.72
2019-04-05T20:46:17.111Z,94387.34
2019-04-05T20:48:48.833Z,94384.91
2019-04-05T20:51:20.608Z,94384.64
2019-04-05T20:53:52.224Z,94387.97
2019-04-05T20:56:23.610Z,94398.28
2019-04-05T20:58:55.324Z,94394.34
2019-04-05T21:01:26.867Z,94394.84
2019-04-05T21:03:58.655Z,94404.11
2019-04-05T21:06:30.417Z,94406.96
2019-04-05T21:09:02.010Z,94408.98
2019-04-05T21:11:35.132Z,94408.91
2019-04-05T21:14:06.931Z,94412.59
2019-04-05T21:16:38.217Z,94411.16
2019-04-05T21:19:09.883Z,94407.72
2019-04-05T21:21:41.770Z,94415.78
2019-04-05T21:24:13.434Z,94417.62
2019-04-05T21:26:45.135Z,94414.90
2019-04-05T21:29:16.951Z,94419.56
2019-04-05T21:31:48.757Z,94419.14
2019-04-05T21:34:20.542Z,94412.01
2019-04-05T21:36:52.136Z,94415.29
2019-04-05T21:39:23.634Z,94423.83
2019-04-05T21:41:55.379Z,94416.19
2019-04-05T21:44:27.213Z,94420.63
2019-04-05T21:46:59.043Z,94418.83
2019-04-05T21:49:30.928Z,94415.58
2019-04-05T21:52:02.670Z,94418.41
2019-04-05T21:54:34.363Z,94412.18
2019-04-05T21:57:06.143Z,94419.77
2019-04-05T21:59:37.761Z,94418.86
2019-04-05T22:02:09.559Z,94420.86
2019-04-05T22:04:41.473Z,94418.73
2019-04-05T22:07:12.986Z,94418.05
2019-04-05T22:09:44.595Z,94420.59
2019-04-05T22:12:16.256Z,94420.38
2019-04-05T22:14:47.990Z,94426.64
2019-04-05T22:17:19.763Z,94425.59
2019-04-05T22:19:51.605Z,94424.39
2019-04-05T22:22:23.084Z,94417.61
2019-04-05T22:24:59.514Z,94427.37
2019-04-05T22:27:28.243Z,94432.41
2019-04-05T22:30:00.149Z,94426.80
2019-04-05T22:32:31.808Z,94430.97
2019-04-05T22:35:03.766Z,94427.19
2019-04-05T22:37:35.174Z,94432.86
2019-04-05T22:40:07.391Z,94440.62
2019-04-05T22:42:40.079Z,94438.16
2019-04-05T22:45:12.007Z,94438.31
2019-04-05T22:47:43.515Z,94435.73
2019-04-05T22:50:15.306Z,94436.88
2019-04-05T22:52:46.708Z,94435.89
2019-04-05T22:55:18.421Z,94434.14
2019-04-05T22:57:50.405Z,94439.84
2019-04-05T23:00:22.052Z,94437.59
2019-04-05T23:02:53.538Z,94432.90
2019-04-05T23:05:25.288Z,94433.59
2019-04-05T23:07:57.038Z,94434.39
2019-04-05T23:10:28.779Z,94434.95
2019-04-05T23:13:00.596Z,94429.34
2019-04-05T23:15:32.087Z,94430.95
2019-04-05T23:18:03.793Z,94438.06
2019-04-05T23:20:35.117Z,94432.90
2019-04-05T23:23:06.514Z,94430.57
2019-04-05T23:25:37.786Z,94434.48
2019-04-05T23:28:09.623Z,94436.55
2019-04-05T23:30:41.501Z,94437.67
2019-04-05T23:33:13.553Z,94446.63
2019-04-05T23:35:45.166Z,94438.63
2019-04-05T23:38:16.792Z,94446.48
2019-04-05T23:40:48.293Z,94440.69
2019-04-05T23:43:19.955Z,94435.46
2019-04-05T23:45:51.854Z,94439.88
2019-04-05T23:48:23.381Z,94437.16
2019-04-05T23:50:55.323Z,94435.29
2019-04-05T23:53:26.873Z,94437.27
2019-04-05T23:55:58.599Z,94439.94
2019-04-05T23:58:31.090Z,94432.72
